Time;durP1;ratioP1;P1;durP2;ratioP2;P2;SDS_P1;SDS_P2;PMS_P1;PMS_P2;Temp;Humidity;BMP_temperature;BMP_pressure;BME280_temperature;BME280_humidity;BME280_pressure;Samples;Min_cycle;Max_cycle;Signal;HPM_P1;HPM_P2
2024/04/13 00:01:19;;;;;;;3.95;2.33;;;16.30;99.90;;;;;;5446883;26;20061;-88
2024/04/13 00:03:45;;;;;;;4.55;2.35;;;16.30;99.90;;;;;;5431263;26;19995;-90
2024/04/13 00:06:11;;;;;;;3.65;2.10;;;16.30;99.90;;;;;;5461337;26;20001;-87
2024/04/13 00:08:40;;;;;;;3.30;2.55;;;16.30;99.90;;;;;;5451893;26;20010;-88
2024/04/13 00:11:08;;;;;;;2.38;2.10;;;16.30;99.90;;;;;;5455883;26;20027;-85
2024/04/13 00:13:34;;;;;;;2.58;2.10;;;16.20;99.90;;;;;;5461368;26;20458;-88
2024/04/13 00:15:59;;;;;;;2.65;2.28;;;16.30;99.90;;;;;;5491687;26;20006;-88
2024/04/13 00:18:25;;;;;;;3.13;2.30;;;16.20;99.90;;;;;;5477886;26;20007;-87
2024/04/13 00:20:51;;;;;;;3.55;2.72;;;16.20;99.90;;;;;;5425566;26;19991;-88
2024/04/13 00:23:17;;;;;;;3.85;2.40;;;16.20;99.90;;;;;;5417536;26;20009;-84
2024/04/13 00:25:44;;;;;;;2.55;2.08;;;16.10;99.90;;;;;;5401131;26;20006;-88
2024/04/13 00:28:10;;;;;;;2.85;2.30;;;16.20;99.90;;;;;;5454355;26;19995;-89
2024/04/13 00:30:36;;;;;;;3.28;2.45;;;16.10;99.90;;;;;;5436042;26;20001;-89
2024/04/13 00:33:02;;;;;;;2.80;2.08;;;16.10;99.90;;;;;;5458085;26;20044;-88
2024/04/13 00:35:27;;;;;;;2.92;2.03;;;16.10;99.90;;;;;;5459551;26;20009;-87
2024/04/13 00:37:53;;;;;;;3.63;2.10;;;16.10;99.90;;;;;;5460187;26;19990;-88
2024/04/13 00:40:19;;;;;;;3.47;2.28;;;16.10;99.90;;;;;;5484273;26;19991;-86
2024/04/13 00:42:45;;;;;;;4.00;2.33;;;16.10;99.90;;;;;;5430515;26;20333;-88
2024/04/13 00:45:11;;;;;;;3.45;2.40;;;16.10;99.90;;;;;;5460649;26;20012;-88
2024/04/13 00:47:37;;;;;;;2.97;2.05;;;16.00;99.90;;;;;;5440457;26;20003;-89
2024/04/13 00:50:11;;;;;;;2.75;1.90;;;16.10;99.90;;;;;;5453338;26;20006;-88
2024/04/13 00:52:46;;;;;;;5.45;2.22;;;16.10;99.90;;;;;;5484747;26;19997;-88
2024/04/13 00:55:12;;;;;;;2.40;1.63;;;16.10;99.90;;;;;;5489683;26;20070;-88
2024/04/13 00:57:39;;;;;;;2.65;2.10;;;16.10;99.90;;;;;;5460764;26;20009;-88
2024/04/13 01:00:06;;;;;;;3.58;1.83;;;16.10;99.90;;;;;;5431050;26;20418;-89
2024/04/13 01:02:37;;;;;;;3.42;2.00;;;16.00;99.90;;;;;;5460075;26;20092;-89
2024/04/13 01:05:07;;;;;;;5.50;2.20;;;16.10;99.90;;;;;;5452407;26;20026;-88
2024/04/13 01:07:33;;;;;;;3.20;2.10;;;16.00;99.90;;;;;;5453833;26;20011;-88
2024/04/13 01:09:59;;;;;;;2.30;1.95;;;16.10;99.90;;;;;;5454255;26;20727;-89
2024/04/13 01:12:26;;;;;;;2.58;2.38;;;16.10;99.90;;;;;;5394860;26;20041;-88
2024/04/13 01:14:52;;;;;;;2.95;1.75;;;16.00;99.90;;;;;;5453173;26;20010;-88
2024/04/13 01:17:18;;;;;;;2.80;1.90;;;16.00;99.90;;;;;;5459272;26;20007;-88
2024/04/13 01:19:43;;;;;;;3.08;2.20;;;16.00;99.90;;;;;;5397683;26;19998;-89
2024/04/13 01:22:10;;;;;;;3.25;2.35;;;16.00;99.90;;;;;;5423366;26;20443;-89
2024/04/13 01:24:40;;;;;;;2.20;1.77;;;16.00;99.90;;;;;;5400880;26;20420;-88
2024/04/13 01:27:06;;;;;;;2.47;1.92;;;16.00;99.90;;;;;;5423744;26;20002;-88
2024/04/13 01:29:32;;;;;;;4.10;2.08;;;16.00;99.90;;;;;;5452138;26;20069;-85
2024/04/13 01:31:58;;;;;;;2.00;1.60;;;16.00;99.90;;;;;;5447433;26;19994;-86
2024/04/13 01:34:26;;;;;;;1.95;1.80;;;16.00;99.90;;;;;;5432604;26;20014;-88
2024/04/13 01:36:52;;;;;;;2.88;2.00;;;16.00;99.90;;;;;;5454511;26;20005;-86
2024/04/13 01:39:17;;;;;;;3.00;2.10;;;16.00;99.90;;;;;;5438841;26;19999;-87
2024/04/13 01:41:46;;;;;;;2.72;2.17;;;15.90;99.90;;;;;;5431047;26;19991;-88
2024/04/13 01:44:13;;;;;;;2.72;2.20;;;15.90;99.90;;;;;;5424117;26;20003;-88
2024/04/13 01:46:38;;;;;;;3.80;2.10;;;15.90;99.90;;;;;;5452385;26;19987;-89
2024/04/13 01:49:05;;;;;;;2.95;2.00;;;15.90;99.90;;;;;;5417766;26;20077;-88
2024/04/13 01:51:34;;;;;;;3.83;2.17;;;15.90;99.90;;;;;;5363069;26;20004;-87
2024/04/13 01:54:00;;;;;;;2.90;2.42;;;15.90;99.90;;;;;;5390512;26;19992;-89
2024/04/13 01:56:29;;;;;;;2.90;2.22;;;15.90;99.90;;;;;;5394811;26;19995;-88
2024/04/13 01:58:55;;;;;;;3.83;2.10;;;15.90;99.90;;;;;;5419563;26;19999;-88
2024/04/13 02:01:21;;;;;;;2.25;2.05;;;15.90;99.90;;;;;;5423282;26;19999;-88
2024/04/13 02:03:47;;;;;;;3.50;2.30;;;15.90;99.90;;;;;;5392609;26;20089;-90
2024/04/13 02:06:13;;;;;;;3.08;2.30;;;15.80;99.90;;;;;;5423530;26;20027;-88
2024/04/13 02:08:39;;;;;;;4.90;2.40;;;15.80;99.90;;;;;;5362865;26;20001;-88
2024/04/13 02:11:06;;;;;;;3.22;2.58;;;15.80;99.90;;;;;;5452996;26;19998;-88
2024/04/13 02:13:33;;;;;;;3.88;2.30;;;15.80;99.90;;;;;;5423071;26;19994;-88
2024/04/13 02:16:00;;;;;;;2.83;2.50;;;15.80;99.90;;;;;;5422858;26;19999;-87
2024/04/13 02:18:26;;;;;;;3.22;2.30;;;15.70;99.90;;;;;;5460772;26;19998;-89
2024/04/13 02:20:51;;;;;;;2.80;2.47;;;15.70;99.90;;;;;;5483541;26;19987;-88
2024/04/13 02:23:17;;;;;;;4.38;2.92;;;15.60;99.90;;;;;;5393953;26;20006;-87
2024/04/13 02:25:49;;;;;;;4.55;2.40;;;15.60;99.90;;;;;;5414829;26;19998;-88
2024/04/13 02:28:14;;;;;;;2.75;2.30;;;15.60;99.90;;;;;;5458515;26;19990;-88
2024/04/13 02:30:41;;;;;;;3.30;2.53;;;15.60;99.90;;;;;;5454821;26;19999;-89
2024/04/13 02:33:07;;;;;;;3.85;2.60;;;15.60;99.90;;;;;;5457958;26;20026;-88
2024/04/13 02:35:33;;;;;;;3.10;2.42;;;15.60;99.90;;;;;;5481658;26;19994;-87
2024/04/13 02:37:59;;;;;;;6.82;2.80;;;15.50;99.90;;;;;;5485711;26;20329;-88
2024/04/13 02:40:25;;;;;;;4.65;2.95;;;15.50;99.90;;;;;;5459328;26;20426;-89
2024/04/13 02:42:51;;;;;;;3.38;2.72;;;15.50;99.90;;;;;;5426526;26;20013;-88
2024/04/13 02:45:18;;;;;;;5.85;2.30;;;15.50;99.90;;;;;;5459611;26;20055;-87
2024/04/13 02:47:50;;;;;;;2.78;2.45;;;15.50;99.90;;;;;;5488869;26;19990;-90
2024/04/13 02:50:16;;;;;;;3.42;2.40;;;15.40;99.90;;;;;;5463038;26;19994;-90
2024/04/13 02:52:42;;;;;;;2.60;2.28;;;15.40;99.90;;;;;;5458818;26;20434;-87
2024/04/13 02:55:09;;;;;;;4.05;2.78;;;15.40;99.90;;;;;;5426983;26;19994;-88
2024/04/13 02:57:35;;;;;;;3.78;2.22;;;15.40;99.90;;;;;;5452366;26;19998;-87
2024/04/13 03:00:04;;;;;;;2.83;2.30;;;15.40;99.90;;;;;;5455264;26;19998;-87
2024/04/13 03:02:30;;;;;;;2.45;2.22;;;15.40;99.90;;;;;;5421329;26;20001;-88
2024/04/13 03:04:55;;;;;;;4.85;2.28;;;15.40;99.90;;;;;;5476279;26;20400;-89
2024/04/13 03:07:21;;;;;;;2.70;2.40;;;15.30;99.90;;;;;;5452532;26;20013;-88
2024/04/13 03:09:50;;;;;;;2.55;2.20;;;15.40;99.90;;;;;;5495008;26;20008;-87
2024/04/13 03:12:16;;;;;;;3.47;2.42;;;15.30;99.90;;;;;;5478928;26;19994;-88
2024/04/13 03:14:45;;;;;;;3.72;2.40;;;15.30;99.90;;;;;;5481217;26;19990;-84
2024/04/13 03:17:11;;;;;;;3.38;2.50;;;15.30;99.90;;;;;;5449124;26;20002;-87
2024/04/13 03:19:38;;;;;;;3.60;2.90;;;15.30;99.90;;;;;;5467181;26;20022;-86
2024/04/13 03:22:04;;;;;;;3.28;2.30;;;15.20;99.90;;;;;;5429255;26;20038;-87
2024/04/13 03:24:33;;;;;;;4.53;2.50;;;15.30;99.90;;;;;;5457688;26;19990;-89
2024/04/13 03:27:03;;;;;;;2.95;2.20;;;15.20;99.90;;;;;;5458453;26;20013;-87
2024/04/13 03:29:29;;;;;;;3.33;2.43;;;15.20;99.90;;;;;;5488378;26;20039;-88
2024/04/13 03:31:55;;;;;;;2.75;2.33;;;15.20;99.90;;;;;;5475478;26;19995;-88
2024/04/13 03:34:23;;;;;;;5.20;2.25;;;15.20;99.90;;;;;;5439129;26;19994;-88
2024/04/13 03:36:52;;;;;;;3.13;2.83;;;15.20;99.90;;;;;;5457838;26;19995;-88
2024/04/13 03:39:21;;;;;;;3.28;2.63;;;15.10;99.90;;;;;;5481721;26;19998;-88
2024/04/13 03:41:47;;;;;;;3.20;2.60;;;15.10;99.90;;;;;;5415025;26;20326;-87
2024/04/13 03:44:13;;;;;;;2.78;2.53;;;15.10;99.90;;;;;;5426444;26;20036;-88
2024/04/13 03:46:39;;;;;;;4.15;2.80;;;15.10;99.90;;;;;;5427749;26;19998;-86
2024/04/13 03:49:05;;;;;;;3.95;2.75;;;15.10;99.90;;;;;;5428000;26;20013;-88
2024/04/13 03:51:31;;;;;;;3.55;2.72;;;15.00;99.90;;;;;;5457433;26;20427;-89
2024/04/13 03:53:57;;;;;;;4.25;2.50;;;15.10;99.90;;;;;;5457257;26;19998;-88
2024/04/13 03:56:23;;;;;;;3.67;2.67;;;15.00;99.90;;;;;;5486428;26;19990;-88
2024/04/13 03:58:49;;;;;;;3.78;2.80;;;15.00;99.90;;;;;;5486623;26;20016;-88
2024/04/13 04:01:15;;;;;;;3.35;2.83;;;15.00;99.90;;;;;;5421897;26;20334;-87
2024/04/13 04:03:41;;;;;;;4.45;3.08;;;15.00;99.90;;;;;;5452942;26;19999;-85
2024/04/13 04:06:07;;;;;;;3.67;2.92;;;15.00;99.90;;;;;;5421820;26;20487;-87
2024/04/13 04:08:35;;;;;;;4.40;3.00;;;15.00;99.90;;;;;;5420877;26;20003;-88
2024/04/13 04:11:01;;;;;;;3.83;2.85;;;14.90;99.90;;;;;;5422248;26;20384;-89
2024/04/13 04:13:27;;;;;;;4.05;3.22;;;14.90;99.90;;;;;;5397982;26;19998;-88
2024/04/13 04:15:52;;;;;;;3.65;2.80;;;14.90;99.90;;;;;;5431828;26;20002;-89
2024/04/13 04:18:19;;;;;;;3.65;3.10;;;14.90;99.90;;;;;;5431208;26;19998;-88
2024/04/13 04:20:48;;;;;;;4.18;2.90;;;14.90;99.90;;;;;;5425161;26;20007;-88
2024/04/13 04:23:17;;;;;;;4.57;3.30;;;14.90;99.90;;;;;;5481048;26;20819;-88
2024/04/13 04:25:44;;;;;;;3.80;2.83;;;14.90;99.90;;;;;;5460063;26;20422;-85
2024/04/13 04:28:11;;;;;;;4.93;3.00;;;14.80;99.90;;;;;;5431438;26;20006;-88
2024/04/13 04:30:37;;;;;;;4.05;3.30;;;14.90;99.90;;;;;;5460741;26;20070;-87
2024/04/13 04:33:03;;;;;;;5.18;3.15;;;14.90;99.90;;;;;;5491645;26;20002;-88
2024/04/13 04:35:29;;;;;;;5.20;3.22;;;14.90;99.90;;;;;;5459222;26;20006;-88
2024/04/13 04:37:55;;;;;;;4.75;3.15;;;14.90;99.90;;;;;;5460534;26;20009;-88
2024/04/13 04:40:22;;;;;;;4.10;3.15;;;14.90;99.90;;;;;;5460927;26;20441;-88
2024/04/13 04:42:48;;;;;;;4.18;3.00;;;14.80;99.90;;;;;;5458459;26;20010;-88
2024/04/13 04:45:14;;;;;;;3.80;2.95;;;14.80;99.90;;;;;;5457294;26;20295;-88
2024/04/13 04:47:40;;;;;;;4.30;3.25;;;14.80;99.90;;;;;;5444481;26;20017;-88
2024/04/13 04:50:06;;;;;;;6.15;3.33;;;14.80;99.90;;;;;;5431658;26;19995;-87
2024/04/13 04:52:32;;;;;;;2.97;2.67;;;14.80;99.90;;;;;;5466961;26;19995;-88
2024/04/13 04:55:01;;;;;;;3.70;3.30;;;14.80;99.90;;;;;;5464768;26;19990;-86
2024/04/13 04:57:27;;;;;;;4.72;3.40;;;14.80;99.90;;;;;;5443074;26;19990;-87
2024/04/13 04:59:53;;;;;;;4.50;3.78;;;14.80;99.90;;;;;;5463423;26;19994;-88
2024/04/13 05:02:18;;;;;;;3.20;2.80;;;14.80;99.90;;;;;;5460973;26;20070;-87
2024/04/13 05:04:44;;;;;;;4.60;3.13;;;14.80;99.90;;;;;;5460713;26;19994;-89
2024/04/13 05:07:10;;;;;;;4.07;3.00;;;14.80;99.90;;;;;;5449494;26;19987;-87
2024/04/13 05:09:36;;;;;;;5.25;3.25;;;14.80;99.90;;;;;;5492477;26;19998;-88
2024/04/13 05:12:01;;;;;;;5.15;3.45;;;14.80;99.90;;;;;;5456993;26;20034;-88
2024/04/13 05:14:27;;;;;;;4.25;3.03;;;14.80;99.90;;;;;;5460659;26;20070;-88
2024/04/13 05:16:53;;;;;;;3.97;3.20;;;14.80;99.90;;;;;;5460403;26;20472;-89
2024/04/13 05:19:18;;;;;;;3.38;2.85;;;14.90;99.90;;;;;;5430046;26;19994;-89
2024/04/13 05:21:44;;;;;;;5.55;3.35;;;14.80;99.90;;;;;;5460235;26;20026;-89
2024/04/13 05:24:10;;;;;;;4.03;3.60;;;14.90;99.90;;;;;;5449751;26;20006;-88
2024/04/13 05:26:36;;;;;;;4.30;3.42;;;14.90;99.90;;;;;;5406822;26;20010;-88
2024/04/13 05:29:03;;;;;;;3.80;3.25;;;14.90;99.90;;;;;;5428584;26;19995;-87
2024/04/13 05:31:29;;;;;;;3.90;3.45;;;14.90;99.90;;;;;;5459831;26;19998;-87
2024/04/13 05:33:55;;;;;;;6.45;3.35;;;14.90;99.90;;;;;;5459883;26;20418;-89
2024/04/13 05:36:21;;;;;;;4.05;3.20;;;14.90;99.90;;;;;;5449382;26;20005;-90
2024/04/13 05:38:47;;;;;;;5.43;3.55;;;15.00;99.90;;;;;;5394096;26;20010;-87
2024/04/13 05:41:13;;;;;;;4.55;3.28;;;15.00;99.90;;;;;;5433730;26;20074;-89
2024/04/13 05:43:44;;;;;;;4.95;3.40;;;15.00;99.90;;;;;;5490206;26;19994;-88
2024/04/13 05:46:10;;;;;;;5.32;3.70;;;15.00;99.90;;;;;;5487525;26;20061;-88
2024/04/13 05:48:36;;;;;;;4.53;3.70;;;15.00;99.90;;;;;;5399769;26;19990;-87
2024/04/13 05:51:03;;;;;;;5.53;3.80;;;15.00;99.90;;;;;;5459436;26;20442;-87
2024/04/13 05:53:29;;;;;;;5.28;3.83;;;15.10;99.90;;;;;;5458869;26;19994;-87
2024/04/13 05:55:55;;;;;;;3.70;3.15;;;15.10;99.90;;;;;;5456738;26;20013;-88
2024/04/13 05:58:21;;;;;;;4.72;3.72;;;15.10;99.90;;;;;;5483775;26;20010;-87
2024/04/13 06:00:47;;;;;;;5.00;3.40;;;15.10;99.90;;;;;;5459473;26;19998;-88
2024/04/13 06:03:13;;;;;;;5.53;3.35;;;15.20;99.90;;;;;;5489163;26;19994;-88
2024/04/13 06:05:44;;;;;;;5.55;3.47;;;15.20;99.90;;;;;;5491830;26;19994;-87
2024/04/13 06:08:10;;;;;;;4.32;3.33;;;15.30;99.90;;;;;;5457422;26;19994;-88
2024/04/13 06:10:36;;;;;;;5.00;3.40;;;15.40;99.90;;;;;;5452568;26;20447;-88
2024/04/13 06:13:02;;;;;;;4.55;3.42;;;15.40;99.90;;;;;;5423947;26;20002;-86
2024/04/13 06:15:27;;;;;;;5.03;3.35;;;15.40;99.90;;;;;;5453785;26;20330;-87
2024/04/13 06:17:53;;;;;;;4.03;3.33;;;15.50;99.90;;;;;;5397790;26;20017;-87
2024/04/13 06:20:19;;;;;;;4.22;3.70;;;15.50;99.90;;;;;;5450362;26;20017;-86
2024/04/13 06:22:47;;;;;;;5.28;3.78;;;15.60;99.90;;;;;;5435981;26;20433;-88
2024/04/13 06:25:13;;;;;;;4.20;3.40;;;15.60;99.90;;;;;;5453841;26;20015;-89
2024/04/13 06:27:41;;;;;;;4.00;3.33;;;15.60;99.90;;;;;;5423100;26;20334;-87
2024/04/13 06:30:16;;;;;;;4.00;3.45;;;15.70;99.90;;;;;;5488176;26;20084;-86
2024/04/13 06:32:42;;;;;;;5.20;3.85;;;15.80;99.90;;;;;;5496476;26;20040;-88
2024/04/13 06:35:09;;;;;;;6.38;4.18;;;15.80;99.90;;;;;;5479649;26;20006;-87
2024/04/13 06:37:35;;;;;;;5.72;4.22;;;15.80;99.90;;;;;;5511370;26;20031;-87
2024/04/13 06:40:03;;;;;;;5.72;4.13;;;15.90;99.90;;;;;;5510124;26;20006;-86
2024/04/13 06:42:31;;;;;;;5.45;4.20;;;15.90;99.90;;;;;;5471128;26;19998;-89
2024/04/13 06:45:00;;;;;;;6.20;4.50;;;15.90;99.90;;;;;;5436622;26;20494;-89
2024/04/13 06:47:27;;;;;;;6.55;5.00;;;16.00;99.90;;;;;;5430088;26;20422;-89
2024/04/13 06:49:52;;;;;;;7.88;5.47;;;16.10;99.90;;;;;;5459308;26;20002;-88
2024/04/13 06:52:18;;;;;;;7.10;4.70;;;16.10;99.90;;;;;;5427151;26;20070;-89
2024/04/13 06:54:44;;;;;;;5.32;4.63;;;16.20;99.90;;;;;;5445311;26;19994;-87
2024/04/13 06:57:10;;;;;;;7.50;5.68;;;16.30;99.90;;;;;;5455833;26;20004;-88
2024/04/13 06:59:40;;;;;;;7.22;5.47;;;16.30;99.90;;;;;;5458606;26;20010;-87
2024/04/13 07:02:07;;;;;;;6.05;4.82;;;16.40;99.90;;;;;;5490066;26;20000;-89
2024/04/13 07:04:32;;;;;;;7.68;5.10;;;16.40;99.90;;;;;;5458131;26;19994;-87
2024/04/13 07:06:58;;;;;;;6.95;5.15;;;16.50;99.90;;;;;;5459480;26;20035;-85
2024/04/13 07:09:24;;;;;;;6.10;4.97;;;16.50;99.90;;;;;;5486737;26;20002;-87
2024/04/13 07:11:50;;;;;;;5.93;4.30;;;16.60;99.90;;;;;;5486957;26;19990;-87
2024/04/13 07:14:16;;;;;;;6.78;4.30;;;16.60;99.90;;;;;;5457288;26;19994;-86
2024/04/13 07:16:41;;;;;;;6.88;4.40;;;16.70;99.90;;;;;;5487106;26;19997;-88
2024/04/13 07:19:07;;;;;;;6.85;4.78;;;16.80;99.90;;;;;;5487206;26;19999;-87
2024/04/13 07:21:33;;;;;;;6.43;4.78;;;16.80;99.90;;;;;;5454419;26;19994;-87
2024/04/13 07:24:04;;;;;;;5.35;4.35;;;16.90;99.90;;;;;;5487890;26;20450;-88
2024/04/13 07:26:33;;;;;;;5.22;4.72;;;16.90;99.90;;;;;;5457159;26;20361;-88
2024/04/13 07:29:03;;;;;;;6.53;4.53;;;17.00;99.90;;;;;;5490049;26;20329;-87
2024/04/13 07:31:29;;;;;;;5.55;4.53;;;17.00;99.90;;;;;;5427424;26;20006;-87
2024/04/13 07:33:55;;;;;;;6.18;4.32;;;17.10;99.90;;;;;;5485542;26;20009;-86
2024/04/13 07:36:21;;;;;;;6.93;4.25;;;17.10;99.90;;;;;;5430870;26;20006;-87
2024/04/13 07:38:46;;;;;;;7.10;4.55;;;17.20;99.90;;;;;;5460206;26;20017;-87
2024/04/13 07:41:14;;;;;;;6.05;4.03;;;17.30;99.90;;;;;;5456831;26;20419;-87
2024/04/13 07:43:43;;;;;;;5.13;4.60;;;17.30;99.90;;;;;;5427164;26;20004;-87
2024/04/13 07:46:09;;;;;;;5.78;4.75;;;17.40;99.90;;;;;;5476755;26;20005;-88
2024/04/13 07:48:35;;;;;;;5.80;4.28;;;17.40;99.90;;;;;;5404354;26;19998;-88
2024/04/13 07:51:01;;;;;;;7.95;4.60;;;17.50;99.90;;;;;;5491042;26;20005;-87
2024/04/13 07:53:30;;;;;;;5.30;4.10;;;17.50;99.90;;;;;;5461050;26;19986;-87
2024/04/13 07:55:59;;;;;;;6.15;4.68;;;17.60;99.90;;;;;;5475333;26;20096;-87
2024/04/13 07:58:25;;;;;;;5.70;4.35;;;17.70;99.90;;;;;;5432977;26;20009;-86
2024/04/13 08:00:51;;;;;;;6.07;4.93;;;17.70;99.90;;;;;;5431246;26;20344;-87
2024/04/13 08:03:17;;;;;;;5.65;3.70;;;17.70;99.90;;;;;;5460594;26;20008;-87
2024/04/13 08:05:42;;;;;;;4.75;4.00;;;17.80;99.90;;;;;;5494089;26;20070;-87
2024/04/13 08:08:08;;;;;;;5.63;4.15;;;17.80;99.90;;;;;;5456823;26;20002;-86
2024/04/13 08:10:42;;;;;;;3.92;3.40;;;17.90;99.90;;;;;;5427349;26;19998;-86
2024/04/13 08:13:09;;;;;;;6.88;4.25;;;17.90;99.90;;;;;;5466254;26;19994;-86
2024/04/13 08:15:41;;;;;;;7.75;5.13;;;18.00;99.90;;;;;;5446740;26;19994;-87
2024/04/13 08:18:09;;;;;;;5.60;4.55;;;18.10;99.90;;;;;;5460722;26;20009;-87
2024/04/13 08:20:35;;;;;;;4.97;3.80;;;18.10;99.90;;;;;;5452878;26;20039;-87
2024/04/13 08:23:01;;;;;;;4.70;3.85;;;18.10;99.90;;;;;;5473154;26;20006;-84
2024/04/13 08:25:28;;;;;;;5.18;3.63;;;18.20;99.90;;;;;;5470584;26;19991;-87
2024/04/13 08:27:54;;;;;;;5.53;3.95;;;18.30;99.90;;;;;;5461885;26;19994;-87
2024/04/13 08:30:21;;;;;;;5.03;3.63;;;18.30;99.90;;;;;;5460195;26;20030;-88
2024/04/13 08:32:48;;;;;;;5.82;3.40;;;18.30;99.90;;;;;;5455969;26;20018;-87
2024/04/13 08:35:15;;;;;;;5.68;4.57;;;18.40;99.90;;;;;;5491584;26;20021;-88
2024/04/13 08:37:40;;;;;;;5.80;4.25;;;18.50;99.90;;;;;;5492869;26;19994;-87
2024/04/13 08:40:13;;;;;;;4.82;4.05;;;18.50;99.90;;;;;;5460420;26;20004;-89
2024/04/13 08:42:41;;;;;;;4.25;3.83;;;18.60;99.90;;;;;;5453398;26;20002;-88
2024/04/13 08:45:11;;;;;;;5.53;4.10;;;18.60;99.90;;;;;;5450816;26;19990;-88
2024/04/13 08:47:41;;;;;;;6.32;4.38;;;18.70;99.90;;;;;;5423979;26;19994;-87
2024/04/13 08:50:08;;;;;;;8.23;5.13;;;18.70;99.90;;;;;;5460317;26;20003;-89
2024/04/13 08:52:35;;;;;;;11.90;6.60;;;18.80;99.90;;;;;;5429546;26;19994;-88
2024/04/13 08:55:03;;;;;;;10.65;5.78;;;18.90;99.90;;;;;;5459921;26;20016;-88
2024/04/13 08:57:33;;;;;;;7.38;5.85;;;18.90;99.90;;;;;;5459568;26;20006;-88
2024/04/13 09:00:06;;;;;;;12.10;5.50;;;19.00;99.90;;;;;;5457844;26;20005;-88
2024/04/13 09:02:36;;;;;;;11.20;6.15;;;19.00;99.90;;;;;;5423778;26;20002;-87
2024/04/13 09:05:04;;;;;;;8.70;4.95;;;19.10;99.90;;;;;;5479511;26;20012;-88
2024/04/13 09:07:32;;;;;;;6.47;4.50;;;19.10;99.90;;;;;;5459677;26;20437;-88
2024/04/13 09:09:59;;;;;;;13.10;7.28;;;19.10;99.90;;;;;;5459228;26;20010;-88
2024/04/13 09:12:26;;;;;;;10.07;6.28;;;19.10;99.90;;;;;;5458399;26;19998;-88
2024/04/13 09:14:53;;;;;;;8.73;5.07;;;19.20;99.90;;;;;;5455871;26;20002;-87
2024/04/13 09:17:22;;;;;;;8.70;6.03;;;19.20;99.90;;;;;;5459393;26;19997;-86
2024/04/13 09:19:48;;;;;;;13.02;7.10;;;19.30;99.90;;;;;;5452981;26;19995;-89
2024/04/13 09:22:16;;;;;;;11.20;6.20;;;19.40;99.90;;;;;;5453359;26;19994;-87
2024/04/13 09:24:42;;;;;;;9.65;6.00;;;19.40;99.90;;;;;;5456644;26;20006;-88
2024/04/13 09:27:20;;;;;;;9.43;6.20;;;19.50;99.90;;;;;;5460117;26;20012;-88
2024/04/13 09:29:46;;;;;;;7.45;5.22;;;19.60;99.90;;;;;;5428720;26;20026;-88
2024/04/13 09:32:33;;;;;;;8.13;5.32;;;19.60;99.90;;;;;;5400200;26;20001;-87
2024/04/13 09:35:09;;;;;;;6.72;4.78;;;19.70;99.90;;;;;;5459785;26;19994;-88
2024/04/13 09:37:38;;;;;;;19.50;7.47;;;19.80;99.90;;;;;;5458312;26;20002;-88
2024/04/13 09:40:04;;;;;;;12.93;6.68;;;19.80;99.90;;;;;;5459578;26;19990;-88
2024/04/13 09:42:33;;;;;;;16.08;8.50;;;19.70;99.90;;;;;;5459268;26;20026;-87
2024/04/13 09:45:06;;;;;;;9.27;6.25;;;19.80;99.90;;;;;;5459207;26;19994;-87
2024/04/13 09:47:32;;;;;;;8.77;5.63;;;19.90;99.90;;;;;;5458329;26;20006;-87
2024/04/13 09:50:00;;;;;;;11.77;5.93;;;19.90;99.90;;;;;;5460052;26;19994;-89
2024/04/13 09:52:28;;;;;;;11.77;6.63;;;20.00;99.90;;;;;;5460104;26;19994;-88
2024/04/13 09:54:58;;;;;;;9.45;5.10;;;20.10;99.90;;;;;;5460951;26;19998;-87
2024/04/13 09:57:24;;;;;;;10.38;6.07;;;20.10;99.90;;;;;;5460068;26;19990;-88
2024/04/13 09:59:51;;;;;;;8.63;5.10;;;20.20;99.90;;;;;;5463499;26;20005;-88
2024/04/13 10:02:18;;;;;;;8.60;5.40;;;20.30;99.90;;;;;;5499098;26;20001;-87
2024/04/13 10:04:44;;;;;;;7.35;4.63;;;20.40;99.90;;;;;;5480442;26;19998;-88
2024/04/13 10:07:11;;;;;;;6.00;4.22;;;20.40;99.90;;;;;;5504330;26;19990;-89
2024/04/13 10:09:40;;;;;;;5.80;3.97;;;20.50;99.90;;;;;;5512506;26;20002;-87
2024/04/13 10:12:16;;;;;;;4.95;3.88;;;20.50;99.90;;;;;;5508634;26;20037;-87
2024/04/13 10:14:45;;;;;;;5.57;4.05;;;20.60;99.90;;;;;;5466788;26;19994;-88
2024/04/13 10:17:12;;;;;;;5.75;4.38;;;20.60;99.90;;;;;;5459849;26;20001;-87
2024/04/13 10:19:40;;;;;;;6.63;4.05;;;20.70;99.90;;;;;;5488617;26;20006;-89
2024/04/13 10:22:06;;;;;;;6.40;4.10;;;20.70;99.90;;;;;;5451730;26;19995;-89
2024/04/13 10:24:32;;;;;;;6.70;4.10;;;20.80;99.90;;;;;;5457730;26;20001;-88
2024/04/13 10:27:08;;;;;;;5.05;3.97;;;20.90;99.90;;;;;;5458880;26;20051;-87
2024/04/13 10:29:51;;;;;;;5.75;3.72;;;20.90;99.90;;;;;;5487168;26;20321;-87
2024/04/13 10:32:20;;;;;;;6.28;3.67;;;21.00;99.90;;;;;;5430191;26;19990;-87
2024/04/13 10:34:46;;;;;;;4.68;3.83;;;21.10;99.90;;;;;;5455541;26;20030;-87
2024/04/13 10:37:48;;;;;;;4.85;3.58;;;21.10;99.90;;;;;;5441635;26;19994;-87
2024/04/13 10:40:24;;;;;;;5.15;3.30;;;21.10;99.90;;;;;;5337569;26;20421;-88
2024/04/13 10:43:06;;;;;;;4.85;3.38;;;21.20;99.90;;;;;;5482210;25;1453954;-89
2024/04/13 10:45:32;;;;;;;4.60;3.03;;;21.30;99.90;;;;;;5512302;25;20025;-90
2024/04/13 10:47:59;;;;;;;4.72;3.08;;;21.40;99.90;;;;;;5507301;26;20077;-87
2024/04/13 10:50:27;;;;;;;4.75;3.00;;;21.50;99.90;;;;;;5495309;25;19997;-86
2024/04/13 10:52:54;;;;;;;5.70;3.30;;;21.60;99.90;;;;;;5505320;25;20321;-87
2024/04/13 10:55:21;;;;;;;4.25;2.60;;;21.60;99.90;;;;;;5512290;25;19993;-87
2024/04/13 10:57:50;;;;;;;4.43;2.88;;;21.60;99.90;;;;;;5508916;25;20321;-88
2024/04/13 11:00:16;;;;;;;4.40;2.42;;;21.70;99.90;;;;;;5447583;26;19993;-87
2024/04/13 11:02:41;;;;;;;5.53;3.00;;;21.70;99.90;;;;;;5486206;25;20330;-88
2024/04/13 11:05:14;;;;;;;3.65;2.75;;;21.70;99.90;;;;;;5514241;25;20358;-88
2024/04/13 11:07:41;;;;;;;4.68;2.78;;;21.70;99.90;;;;;;5511251;25;20004;-88
2024/04/13 11:10:07;;;;;;;3.65;2.70;;;21.80;99.90;;;;;;5514818;25;19993;-87
2024/04/13 11:12:34;;;;;;;4.53;2.50;;;21.80;99.90;;;;;;5482022;25;19993;-87
2024/04/13 11:15:09;;;;;;;5.32;2.67;;;21.90;99.90;;;;;;5508048;25;20009;-87
2024/04/13 11:17:35;;;;;;;4.90;2.47;;;21.90;99.90;;;;;;5461354;25;20005;-87
2024/04/13 11:20:06;;;;;;;2.58;2.30;;;22.00;99.90;;;;;;5515410;25;20007;-87
2024/04/13 11:22:33;;;;;;;4.43;2.42;;;22.00;99.80;;;;;;5496431;26;20008;-88
2024/04/13 11:25:03;;;;;;;3.03;2.72;;;22.00;99.70;;;;;;5463554;26;20397;-87
2024/04/13 11:27:28;;;;;;;5.22;2.78;;;22.00;99.50;;;;;;5512088;25;20492;-86
2024/04/13 11:29:55;;;;;;;3.55;2.30;;;22.10;99.40;;;;;;5500866;25;19993;-86
2024/04/13 11:32:20;;;;;;;3.17;2.10;;;22.10;99.30;;;;;;5553298;25;19990;-87
2024/04/13 11:34:46;;;;;;;9.48;4.10;;;22.10;99.20;;;;;;5527266;25;20050;-85
2024/04/13 11:37:12;;;;;;;6.75;2.50;;;22.10;99.10;;;;;;5479503;25;19989;-87
2024/04/13 11:39:39;;;;;;;4.13;2.60;;;22.20;99.00;;;;;;5477463;26;19994;-87
2024/04/13 11:42:10;;;;;;;3.72;2.58;;;22.20;99.00;;;;;;5467777;25;20004;-87
2024/04/13 11:44:40;;;;;;;4.78;2.80;;;22.20;98.70;;;;;;5512157;25;20029;-87
2024/04/13 11:47:06;;;;;;;6.10;2.37;;;22.20;98.50;;;;;;5508067;25;20002;-86
2024/04/13 11:49:32;;;;;;;4.65;2.17;;;22.10;98.50;;;;;;5482134;26;19994;-86
2024/04/13 11:51:58;;;;;;;3.53;2.08;;;22.10;98.30;;;;;;5539895;25;20074;-90
2024/04/13 11:54:27;;;;;;;3.40;1.83;;;22.20;98.20;;;;;;5504158;26;20014;-92
2024/04/13 11:56:53;;;;;;;1.58;1.48;;;22.20;98.10;;;;;;5513258;26;19986;-92
2024/04/13 11:59:19;;;;;;;2.95;1.70;;;22.20;98.00;;;;;;5519307;26;19989;-93
2024/04/13 12:01:44;;;;;;;3.28;1.80;;;22.20;97.70;;;;;;5552468;26;19985;-87
2024/04/13 12:04:10;;;;;;;2.47;1.45;;;22.20;97.60;;;;;;5519774;26;19996;-89
2024/04/13 12:06:36;;;;;;;2.80;1.70;;;22.30;97.70;;;;;;5518256;26;20018;-86
2024/04/13 12:09:02;;;;;;;2.10;1.63;;;22.40;97.70;;;;;;5531969;26;19989;-87
2024/04/13 12:11:31;;;;;;;3.75;1.73;;;22.40;97.40;;;;;;5504097;26;19989;-87
2024/04/13 12:13:57;;;;;;;4.68;1.50;;;22.50;97.00;;;;;;5513810;26;20005;-89
2024/04/13 12:16:24;;;;;;;2.47;1.55;;;22.60;96.80;;;;;;5465725;26;20476;-87
2024/04/13 12:18:51;;;;;;;3.50;1.80;;;22.70;96.90;;;;;;5489888;26;20031;-88
2024/04/13 12:21:17;;;;;;;4.45;1.80;;;22.70;96.50;;;;;;5467654;26;20001;-88
2024/04/13 12:23:43;;;;;;;2.22;1.55;;;22.70;96.50;;;;;;5496806;26;19994;-89
2024/04/13 12:26:15;;;;;;;1.92;1.55;;;22.70;96.50;;;;;;5483219;26;20002;-90
2024/04/13 12:28:41;;;;;;;2.47;1.50;;;22.80;96.10;;;;;;5498280;26;20068;-90
2024/04/13 12:31:07;;;;;;;2.72;1.55;;;22.70;96.00;;;;;;5462175;26;20414;-88
2024/04/13 12:33:32;;;;;;;3.08;1.42;;;22.80;95.60;;;;;;5494506;26;19990;-89
2024/04/13 12:35:58;;;;;;;4.60;1.90;;;22.80;95.40;;;;;;5461552;26;20005;-90
2024/04/13 12:38:26;;;;;;;4.32;1.63;;;22.80;95.20;;;;;;5445888;26;20061;-89
2024/04/13 12:40:52;;;;;;;4.32;1.60;;;22.80;95.30;;;;;;5468287;26;19993;-86
2024/04/13 12:43:18;;;;;;;3.33;1.83;;;22.80;95.30;;;;;;5462405;26;20066;-88
2024/04/13 12:45:43;;;;;;;3.97;1.40;;;22.80;95.20;;;;;;5464901;26;20005;-90